This is the latest recevied weather packets stored in our database for station/object WP4NYS-13. If no packets are shown the sender has not sent any weather packets the latest 10 day(s).
| Time | Temp. | Humidity | Pressure | Rain* | Wind** | Luminosity | Snow |
|---|---|---|---|---|---|---|---|
| 1777412272 | 31.11° C | 47% | 1018 hPa | 0 mm | - | - | - |
| 1777411969 | 31.67° C | 46% | 1017.9 hPa | 0 mm | - | - | - |
| 1777411667 | 32.22° C | 44% | 1018.1 hPa | 0 mm | - | - | - |
| 1777411363 | 32.22° C | 43% | 1018 hPa | 0 mm | - | - | - |
| 1777411062 | 32.22° C | 41% | 1017.9 hPa | 0 mm | - | - | - |
| 1777410757 | 32.78° C | 40% | 1018.5 hPa | 0 mm | - | - | - |
| 1777410456 | 31.67° C | 41% | 1018.4 hPa | 0 mm | - | - | - |
| 1777410156 | 31.67° C | 41% | 1018.4 hPa | 0 mm | - | - | - |
| 1777409850 | 31.11° C | 42% | 1018.5 hPa | 0 mm | - | - | - |
| 1777409547 | 32.22° C | 41% | 1018.7 hPa | 0 mm | - | - | - |
| 1777409242 | 32.78° C | 40% | 1018.5 hPa | 0 mm | - | - | - |
| 1777408938 | 32.78° C | 40% | 1018.6 hPa | 0 mm | - | - | - |
| 1777408635 | 33.33° C | 39% | 1018.6 hPa | 0 mm | - | - | - |
| 1777408331 | 33.33° C | 38% | 1018.7 hPa | 0 mm | - | - | - |
| 1777408030 | 32.78° C | 38% | 1018.7 hPa | 0 mm | - | - | - |
| 1777407728 | 32.78° C | 38% | 1018.6 hPa | 0 mm | - | - | - |
| 1777407428 | 32.78° C | 37% | 1019 hPa | 0 mm | - | - | - |
| 1777407123 | 32.78° C | 40% | 1019 hPa | 0 mm | - | - | - |
| 1777406819 | 32.78° C | 40% | 1019.1 hPa | 0 mm | - | - | - |
| 1777406514 | 32.78° C | 40% | 1019 hPa | 0 mm | - | - | - |
| 1777406209 | 32.22° C | 41% | 1019.2 hPa | 0 mm | - | - | - |
| 1777405909 | 32.22° C | 41% | 1019.5 hPa | 0 mm | - | - | - |
| 1777405605 | 31.67° C | 42% | 1019.4 hPa | 0 mm | - | - | - |
| 1777405303 | 30.56° C | 44% | 1019.5 hPa | 0 mm | - | - | - |
| 1777405003 | 31.11° C | 43% | 1019.4 hPa | 0 mm | - | - | - |
* Rain latest hour (hover to see other rain measurements)
** Current wind speed in m/s (hover to see current wind gust speed)